Aérodrome :
LOGIN :

S'inscrire | Disclaimer

   EN    FR    IT 

 










Légende :    VFR   VFR Marginal   IFR   IFR Intensif   IFR Très Intensif
Visi : 
Plafond : 
>= 8 km
>= 3000ft
5 à 8 km
1000 à 3000 ft
1500m à 5 km
500 à 1000 ft
800 à 1500m
200 à 500 ft
< 800m
< 200 ft
Symboles :   Orages  Brouillard  Fortes neiges  Fortes précipitations  Vent > 20 kt
SIGMETs :   Divers  Orages  Givrage  Turbulence  Onde Orograph.  Cendres Volcan.







- Altitude de l'aérodrome : 209 ft
- Code IATA : CLY
- Voir les cartes d'approche


LFKC - Calvi

DERNIER METAR :
  • 221600Z AUTO VRB01KT 9999 OVC029 15/11 Q1019 NOSIG

METARs EXPIRÉS :
  • 221530Z AUTO 10004KT 9999 OVC027 15/11 Q1019 NOSIG
  • 221500Z AUTO 10002KT 9999 BKN027 16/11 Q1019 NOSIG
  • 221430Z AUTO VRB03KT 9999 FEW026 16/11 Q1018 NOSIG
  • 221400Z AUTO VRB03KT CAVOK 17/10 Q1018 NOSIG
  • 221330Z AUTO 35004KT 320V020 CAVOK 17/11 Q1018 NOSIG

TAF TAF LFKC
Valide du 22 à 15h jusqu'au 23 à 15h UTC


221400Z 2215/2315 35006KT CAVOK
TEMPO 2218/2221 BKN030
BECMG 2219/2221 18003KT
BECMG 2309/2311 35006KT TX17/2312Z TN08/2304Z
ATIS : +33 4 95 65 82 49
Pas de NOTAMs connus pour ce terrain.



MET'MAP, la Météo Aéronautique d'un coup d'oeil ! - Copyright ORBIFLY Décembre 2007 - Disclaimer

ORBIFLY MET'MAP TEAM :

Programmation & Développement : Alexandra Zaïnal
Conception & Développement : Baudouin d'Aumeries
Co-Programmation & Développement : Marc-Olivier Méhu
Soutien technique & logistique : Manuel Goepfert

Contact : metmap@orbifly.com




SOURCES & CREDITS :

   NOAA